Time;durP1;ratioP1;P1;durP2;ratioP2;P2;SDS_P1;SDS_P2;PMS_P1;PMS_P2;Temp;Humidity;BMP_temperature;BMP_pressure;BME280_temperature;BME280_humidity;BME280_pressure;Samples;Min_cycle;Max_cycle;Signal;HPM_P1;HPM_P2
2022/09/28 00:01:04;;;;;;;;;;;;;;;7.97;100.00;99611.03;5096138;28;19955;-34
2022/09/28 00:03:29;;;;;;;;;;;;;;;7.97;100.00;99616.41;5095595;28;19920;-34
2022/09/28 00:05:59;;;;;;;;;;;;;;;7.98;100.00;99614.53;5095343;28;19916;-34
2022/09/28 00:08:24;;;;;;;;;;;;;;;7.98;100.00;99609.94;5095382;28;20284;-35
2022/09/28 00:10:53;;;;;;;;;;;;;;;7.99;100.00;99608.06;5094975;28;19916;-34
2022/09/28 00:13:18;;;;;;;;;;;;;;;7.99;100.00;99600.00;5095778;28;19916;-34
2022/09/28 00:15:43;;;;;;;;;;;;;;;8.00;100.00;99598.94;5094982;28;19923;-34
2022/09/28 00:18:09;;;;;;;;;;;;;;;8.02;100.00;99596.00;5094959;28;19920;-34
2022/09/28 00:20:34;;;;;;;;;;;;;;;8.03;100.00;99592.25;5095084;28;19916;-34
2022/09/28 00:22:59;;;;;;;;;;;;;;;8.00;100.00;99583.63;5095036;28;19920;-34
2022/09/28 00:25:24;;;;;;;;;;;;;;;8.03;100.00;99581.50;5094774;28;19916;-34
2022/09/28 00:27:50;;;;;;;;;;;;;;;8.02;100.00;99585.25;5094411;28;19921;-34
2022/09/28 00:30:15;;;;;;;;;;;;;;;8.02;100.00;99585.25;5094921;28;19971;-34
2022/09/28 00:32:40;;;;;;;;;;;;;;;8.04;100.00;99585.81;5094117;28;19917;-34
2022/09/28 00:35:05;;;;;;;;;;;;;;;8.04;100.00;99580.41;5094316;28;19916;-34
2022/09/28 00:37:31;;;;;;;;;;;;;;;8.03;100.00;99576.91;5094750;28;19920;-34
2022/09/28 00:39:56;;;;;;;;;;;;;;;8.03;100.00;99581.50;5094635;28;19970;-34
2022/09/28 00:42:23;;;;;;;;;;;;;;;8.03;100.00;99576.09;5095167;28;19920;-34
2022/09/28 00:44:49;;;;;;;;;;;;;;;8.04;100.00;99583.13;5094795;28;19916;-34
2022/09/28 00:47:14;;;;;;;;;;;;;;;8.04;100.00;99578.53;5094356;28;19920;-34
2022/09/28 00:49:42;;;;;;;;;;;;;;;8.04;100.00;99573.16;5093982;28;19916;-35
2022/09/28 00:52:10;;;;;;;;;;;;;;;8.04;100.00;99572.34;5094452;28;20403;-34
2022/09/28 00:54:35;;;;;;;;;;;;;;;8.06;100.00;99572.94;5094926;28;19923;-35
2022/09/28 00:57:01;;;;;;;;;;;;;;;8.06;100.00;99570.25;5094219;28;19916;-35
2022/09/28 00:59:27;;;;;;;;;;;;;;;8.07;100.00;99577.25;5094001;28;19939;-35
2022/09/28 01:01:52;;;;;;;;;;;;;;;8.10;100.00;99571.34;5094289;28;20368;-34
2022/09/28 01:04:17;;;;;;;;;;;;;;;8.09;100.00;99567.03;5094230;28;20011;-35
2022/09/28 01:06:44;;;;;;;;;;;;;;;8.10;100.00;99569.50;5093639;28;19982;-34
2022/09/28 01:09:11;;;;;;;;;;;;;;;8.11;100.00;99567.63;5094127;28;20325;-34
2022/09/28 01:11:37;;;;;;;;;;;;;;;8.12;100.00;99561.97;5093819;28;19923;-34
2022/09/28 01:14:02;;;;;;;;;;;;;;;8.12;100.00;99570.06;5093534;28;20379;-34
2022/09/28 01:16:46;;;;;;;;;;;;;;;8.12;100.00;99564.69;5093820;28;19995;-34
2022/09/28 01:19:20;;;;;;;;;;;;;;;8.11;100.00;99563.06;5094248;28;20019;-34
2022/09/28 01:21:50;;;;;;;;;;;;;;;8.08;100.00;99565.41;5094275;28;20002;-34
2022/09/28 01:24:21;;;;;;;;;;;;;;;8.07;100.00;99571.88;5093574;28;19935;-34
2022/09/28 01:26:56;;;;;;;;;;;;;;;8.04;100.00;99572.34;5093343;28;20007;-34
2022/09/28 01:29:21;;;;;;;;;;;;;;;8.02;100.00;99569.91;5094020;28;20265;-34
2022/09/28 01:31:52;;;;;;;;;;;;;;;7.99;100.00;99571.19;5094014;28;19923;-34
2022/09/28 01:34:28;;;;;;;;;;;;;;;7.98;100.00;99579.53;5093524;28;19923;-35
2022/09/28 01:36:55;;;;;;;;;;;;;;;7.97;100.00;99585.97;5093120;28;20003;-35
2022/09/28 01:39:24;;;;;;;;;;;;;;;7.96;100.00;99582.47;5093880;28;20348;-35
2022/09/28 01:41:52;;;;;;;;;;;;;;;7.95;100.00;99582.69;5093333;28;20288;-34
2022/09/28 01:44:19;;;;;;;;;;;;;;;7.93;100.00;99577.56;5093134;28;19924;-37
2022/09/28 01:46:46;;;;;;;;;;;;;;;7.92;100.00;99580.50;5093213;28;19917;-35
2022/09/28 01:49:18;;;;;;;;;;;;;;;7.91;100.00;99574.31;5093559;28;19922;-34
2022/09/28 01:51:48;;;;;;;;;;;;;;;7.92;100.00;99575.94;5093989;28;19923;-35
2022/09/28 01:54:20;;;;;;;;;;;;;;;7.93;100.00;99574.88;5093549;28;19981;-35
2022/09/28 01:57:08;;;;;;;;;;;;;;;7.93;100.00;99574.06;5093492;28;19959;-35
2022/09/28 01:59:34;;;;;;;;;;;;;;;7.91;100.00;99568.13;5093538;28;19970;-35
2022/09/28 02:01:59;;;;;;;;;;;;;;;7.91;100.00;99579.69;5093927;28;19920;-34
2022/09/28 02:04:28;;;;;;;;;;;;;;;7.94;100.00;99578.38;5093646;28;19923;-34
2022/09/28 02:06:57;;;;;;;;;;;;;;;7.93;100.00;99574.06;5093870;28;19916;-34
2022/09/28 02:09:24;;;;;;;;;;;;;;;7.92;100.00;99570.56;5092698;28;20416;-34
2022/09/28 02:11:59;;;;;;;;;;;;;;;7.92;100.00;99567.88;5093322;28;19991;-34
2022/09/28 02:14:26;;;;;;;;;;;;;;;7.92;100.00;99573.25;5093135;28;20347;-34
2022/09/28 02:16:53;;;;;;;;;;;;;;;7.92;100.00;99564.34;5093170;28;19928;-34
2022/09/28 02:19:21;;;;;;;;;;;;;;;7.91;100.00;99563.53;5092799;28;19924;-34
2022/09/28 02:21:52;;;;;;;;;;;;;;;7.92;100.00;99567.88;5092758;28;19923;-34
2022/09/28 02:24:21;;;;;;;;;;;;;;;7.89;100.00;99571.03;5092966;28;19916;-34
2022/09/28 02:26:47;;;;;;;;;;;;;;;7.89;100.00;99571.03;5093743;28;19916;-34
2022/09/28 02:29:12;;;;;;;;;;;;;;;7.89;100.00;99570.22;5093233;28;19916;-34
2022/09/28 02:31:38;;;;;;;;;;;;;;;7.89;100.00;99565.66;5092976;28;19916;-34
2022/09/28 02:34:03;;;;;;;;;;;;;;;7.89;100.00;99568.34;5075069;28;19932;-34
2022/09/28 02:36:28;;;;;;;;;;;;;;;7.89;100.00;99572.91;5093162;28;19920;-34
2022/09/28 02:38:56;;;;;;;;;;;;;;;7.88;100.00;99574.78;5093441;28;19949;-34
2022/09/28 02:41:42;;;;;;;;;;;;;;;7.88;100.00;99574.78;5092747;28;19916;-34
2022/09/28 02:44:15;;;;;;;;;;;;;;;7.86;100.00;99570.72;5092527;28;19916;-34
2022/09/28 02:46:48;;;;;;;;;;;;;;;7.87;100.00;99572.34;5093347;28;20355;-35
2022/09/28 02:49:25;;;;;;;;;;;;;;;7.87;100.00;99575.84;5093293;28;19916;-35
2022/09/28 02:51:50;;;;;;;;;;;;;;;7.86;100.00;99571.53;5092922;28;20489;-34
2022/09/28 02:54:15;;;;;;;;;;;;;;;7.85;100.00;99563.69;5093497;28;20010;-34
2022/09/28 02:56:53;;;;;;;;;;;;;;;7.85;100.00;99571.75;5094003;28;19969;-34
2022/09/28 02:59:27;;;;;;;;;;;;;;;7.84;100.00;99573.63;5096903;28;19916;-34
2022/09/28 03:01:55;;;;;;;;;;;;;;;7.78;100.00;99565.75;5096582;28;19920;-34
2022/09/28 03:04:36;;;;;;;;;;;;;;;7.82;100.00;99574.97;5096274;28;19916;-36
2022/09/28 03:07:06;;;;;;;;;;;;;;;7.81;100.00;99570.63;5096357;28;20058;-34
2022/09/28 03:09:50;;;;;;;;;;;;;;;7.80;100.00;99572.50;5096815;28;19961;-34
2022/09/28 03:12:17;;;;;;;;;;;;;;;7.82;100.00;99574.97;5096245;28;19939;-34
2022/09/28 03:14:42;;;;;;;;;;;;;;;7.81;100.00;99576.00;5096202;28;19917;-34
2022/09/28 03:17:08;;;;;;;;;;;;;;;7.79;100.00;99573.56;5096681;28;19916;-34
2022/09/28 03:19:33;;;;;;;;;;;;;;;7.77;100.00;99567.63;5095751;28;19916;-34
2022/09/28 03:21:59;;;;;;;;;;;;;;;7.76;100.00;99571.38;5095762;28;19916;-34
2022/09/28 03:24:24;;;;;;;;;;;;;;;7.76;100.00;99571.38;5096141;28;19916;-34
2022/09/28 03:26:50;;;;;;;;;;;;;;;7.77;100.00;99578.38;5096153;28;20402;-34
2022/09/28 03:29:15;;;;;;;;;;;;;;;7.75;100.00;99570.53;5095847;28;19917;-34
2022/09/28 03:31:40;;;;;;;;;;;;;;;7.77;100.00;99580.25;5096056;28;19916;-34
2022/09/28 03:34:05;;;;;;;;;;;;;;;7.75;100.00;99575.91;5095834;28;19974;-34
2022/09/28 03:36:31;;;;;;;;;;;;;;;7.76;100.00;99574.06;5096305;28;19982;-34
2022/09/28 03:38:56;;;;;;;;;;;;;;;7.77;100.00;99573.00;5095768;28;19973;-34
2022/09/28 03:41:22;;;;;;;;;;;;;;;7.78;100.00;99573.81;5095651;28;19920;-34
2022/09/28 03:43:48;;;;;;;;;;;;;;;7.77;100.00;99575.69;5095583;28;19959;-34
2022/09/28 03:46:13;;;;;;;;;;;;;;;7.78;100.00;99577.31;5095476;28;20037;-34
2022/09/28 03:48:38;;;;;;;;;;;;;;;7.77;100.00;99588.34;5095975;28;19919;-34
2022/09/28 03:51:05;;;;;;;;;;;;;;;7.78;100.00;99585.38;5095475;28;19990;-34
2022/09/28 03:53:31;;;;;;;;;;;;;;;7.77;100.00;99578.38;5095860;28;19970;-34
2022/09/28 03:56:01;;;;;;;;;;;;;;;7.79;100.00;99583.50;5095141;28;20022;-34
2022/09/28 03:58:26;;;;;;;;;;;;;;;7.78;100.00;99582.69;5095396;28;20424;-34
2022/09/28 04:00:52;;;;;;;;;;;;;;;7.79;100.00;99592.41;5095676;28;19967;-34
2022/09/28 04:03:17;;;;;;;;;;;;;;;7.80;100.00;99588.63;5095263;28;19923;-34
2022/09/28 04:05:49;;;;;;;;;;;;;;;7.80;100.00;99587.81;5076892;28;19931;-34
2022/09/28 04:08:14;;;;;;;;;;;;;;;7.79;100.00;99592.41;5095025;28;19920;-34
2022/09/28 04:10:39;;;;;;;;;;;;;;;7.79;100.00;99581.63;5095379;28;20010;-34
2022/09/28 04:13:05;;;;;;;;;;;;;;;7.79;100.00;99583.50;5095312;28;19938;-34
2022/09/28 04:15:30;;;;;;;;;;;;;;;7.79;100.00;99586.19;5094840;28;19916;-34
2022/09/28 04:17:55;;;;;;;;;;;;;;;7.78;100.00;99581.88;5094684;28;20328;-34
2022/09/28 04:20:20;;;;;;;;;;;;;;;7.77;100.00;99580.25;5094845;28;19922;-34
2022/09/28 04:22:46;;;;;;;;;;;;;;;7.75;100.00;99583.16;5094515;28;19924;-34
2022/09/28 04:25:11;;;;;;;;;;;;;;;7.72;100.00;99573.72;5094523;28;19952;-34
2022/09/28 04:30:20;;;;;;;;;;;;;;;7.69;100.00;99568.81;5095078;28;19969;-34
2022/09/28 04:32:46;;;;;;;;;;;;;;;7.67;100.00;99568.25;5095385;28;19916;-34
2022/09/28 04:35:11;;;;;;;;;;;;;;;7.68;100.00;99569.06;5094875;28;20372;-35
2022/09/28 04:37:37;;;;;;;;;;;;;;;7.67;100.00;99572.81;5094807;28;20007;-34
2022/09/28 04:40:02;;;;;;;;;;;;;;;7.64;100.00;99571.44;5094593;28;20344;-34
2022/09/28 04:42:27;;;;;;;;;;;;;;;7.63;100.00;99566.28;5095002;28;19999;-34
2022/09/28 04:44:53;;;;;;;;;;;;;;;7.61;100.00;99571.09;5094451;28;19939;-34
2022/09/28 04:47:18;;;;;;;;;;;;;;;7.59;100.00;99573.22;5094378;28;19967;-34
2022/09/28 04:49:43;;;;;;;;;;;;;;;7.56;100.00;99587.13;5094110;28;19917;-34
2022/09/28 04:52:08;;;;;;;;;;;;;;;7.52;100.00;99578.75;5075998;28;20368;-34
2022/09/28 04:54:34;;;;;;;;;;;;;;;7.50;100.00;99586.22;5094115;28;19916;-34
2022/09/28 04:56:59;;;;;;;;;;;;;;;7.48;100.00;99591.06;5094025;28;20353;-34
2022/09/28 04:59:24;;;;;;;;;;;;;;;7.45;100.00;99595.03;5093761;28;19931;-34
2022/09/28 05:01:50;;;;;;;;;;;;;;;7.45;100.00;99599.59;5094529;28;20352;-34
2022/09/28 05:04:16;;;;;;;;;;;;;;;7.44;100.00;99596.09;5094428;28;19916;-34
2022/09/28 05:06:43;;;;;;;;;;;;;;;7.43;100.00;99599.84;5093233;28;20296;-34
2022/09/28 05:09:08;;;;;;;;;;;;;;;7.42;100.00;99592.84;5094176;28;20316;-34
2022/09/28 05:11:33;;;;;;;;;;;;;;;7.43;100.00;99599.84;5093656;28;20011;-34
2022/09/28 05:13:58;;;;;;;;;;;;;;;7.45;100.00;99603.09;5093979;28;20429;-34
2022/09/28 05:16:25;;;;;;;;;;;;;;;7.45;100.00;99596.91;5093821;28;19916;-34
2022/09/28 05:18:53;;;;;;;;;;;;;;;7.46;100.00;99601.22;5094047;28;19999;-34
2022/09/28 05:21:19;;;;;;;;;;;;;;;7.46;100.00;99599.34;5093993;28;19969;-34
2022/09/28 05:23:47;;;;;;;;;;;;;;;7.44;100.00;99604.16;5093613;28;19920;-34
2022/09/28 05:26:12;;;;;;;;;;;;;;;7.43;100.00;99605.22;5093888;28;19923;-34
2022/09/28 05:28:38;;;;;;;;;;;;;;;7.42;100.00;99603.59;5093371;28;19916;-35
2022/09/28 05:31:03;;;;;;;;;;;;;;;7.41;100.00;99607.31;5093607;28;20023;-35
2022/09/28 05:33:29;;;;;;;;;;;;;;;7.41;100.00;99603.81;5094149;28;19980;-34
2022/09/28 05:35:55;;;;;;;;;;;;;;;7.40;100.00;99602.19;5093479;28;20060;-34
2022/09/28 05:38:20;;;;;;;;;;;;;;;7.38;100.00;99609.69;5093192;28;20003;-34
2022/09/28 05:40:45;;;;;;;;;;;;;;;7.36;100.00;99599.16;5093392;28;19922;-34
2022/09/28 05:43:11;;;;;;;;;;;;;;;7.35;100.00;99602.09;5094073;28;19922;-34
2022/09/28 05:45:36;;;;;;;;;;;;;;;7.33;100.00;99610.41;5093839;28;20360;-34
2022/09/28 05:48:01;;;;;;;;;;;;;;;7.33;100.00;99601.53;5093424;28;19920;-34
2022/09/28 05:50:26;;;;;;;;;;;;;;;7.32;100.00;99614.16;5093734;28;19920;-34
2022/09/28 05:53:01;;;;;;;;;;;;;;;7.32;100.00;99608.78;5093352;28;19916;-34
2022/09/28 05:55:27;;;;;;;;;;;;;;;7.33;100.00;99609.59;5092938;28;20399;-34
2022/09/28 05:57:52;;;;;;;;;;;;;;;7.32;100.00;99608.78;5093285;28;19953;-34
2022/09/28 06:00:17;;;;;;;;;;;;;;;7.32;100.00;99607.94;5093338;28;19920;-34
2022/09/28 06:02:42;;;;;;;;;;;;;;;7.34;100.00;99620.09;5093428;28;19920;-34
2022/09/28 06:05:08;;;;;;;;;;;;;;;7.35;100.00;99612.84;5093503;28;20272;-34
2022/09/28 06:07:33;;;;;;;;;;;;;;;7.34;100.00;99612.03;5093165;28;20053;-34
2022/09/28 06:09:58;;;;;;;;;;;;;;;7.34;100.00;99617.41;5092854;28;20337;-34
2022/09/28 06:12:24;;;;;;;;;;;;;;;7.33;100.00;99618.47;5093462;28;19923;-34
2022/09/28 06:14:49;;;;;;;;;;;;;;;7.32;100.00;99626.75;5093088;28;20313;-34
2022/09/28 06:17:15;;;;;;;;;;;;;;;7.33;100.00;99631.09;5093616;28;19916;-34
2022/09/28 06:19:40;;;;;;;;;;;;;;;7.33;100.00;99636.47;5093077;28;20022;-34
2022/09/28 06:22:05;;;;;;;;;;;;;;;7.31;100.00;99627.81;5092850;28;19916;-34
2022/09/28 06:24:30;;;;;;;;;;;;;;;7.30;100.00;99636.94;5093229;28;19918;-34
2022/09/28 06:26:56;;;;;;;;;;;;;;;7.29;100.00;99633.44;5093679;28;19916;-34
2022/09/28 06:29:21;;;;;;;;;;;;;;;7.28;100.00;99629.13;5093696;28;19917;-34
2022/09/28 06:31:46;;;;;;;;;;;;;;;7.30;100.00;99631.56;5094960;28;19920;-34
2022/09/28 06:34:12;;;;;;;;;;;;;;;7.34;100.00;99638.13;5096740;28;20015;-34
2022/09/28 06:36:37;;;;;;;;;;;;;;;7.36;100.00;99642.19;5097224;28;20356;-34
2022/09/28 06:39:02;;;;;;;;;;;;;;;7.39;100.00;99636.34;5097646;28;19916;-34
2022/09/28 06:41:28;;;;;;;;;;;;;;;7.42;100.00;99635.88;5097341;28;20377;-34
2022/09/28 06:43:53;;;;;;;;;;;;;;;7.44;100.00;99639.13;5097100;28;19923;-34
2022/09/28 06:46:19;;;;;;;;;;;;;;;7.49;100.00;99646.47;5096704;28;19920;-34
2022/09/28 06:48:45;;;;;;;;;;;;;;;7.53;100.00;99644.13;5097007;28;19961;-34
2022/09/28 06:51:10;;;;;;;;;;;;;;;7.59;100.00;99645.84;5097326;28;19958;-34
2022/09/28 06:53:35;;;;;;;;;;;;;;;7.63;100.00;99652.38;5097055;28;19978;-34
2022/09/28 06:56:01;;;;;;;;;;;;;;;7.65;100.00;99653.75;5096936;28;20382;-34
2022/09/28 06:58:27;;;;;;;;;;;;;;;7.68;100.00;99656.00;5096810;28;19959;-34
2022/09/28 07:00:58;;;;;;;;;;;;;;;7.68;100.00;99652.47;5096831;28;20348;-34
2022/09/28 07:03:23;;;;;;;;;;;;;;;7.69;100.00;99656.81;5097127;28;19916;-34
2022/09/28 07:05:50;;;;;;;;;;;;;;;7.72;100.00;99661.72;5096699;28;19927;-34
2022/09/28 07:08:16;;;;;;;;;;;;;;;7.77;100.00;99658.31;5096201;28;19961;-34
2022/09/28 07:10:42;;;;;;;;;;;;;;;7.83;100.00;99666.22;5096379;28;19916;-34
2022/09/28 07:13:08;;;;;;;;;;;;;;;7.86;100.00;99656.84;5096557;28;19916;-34
2022/09/28 07:15:33;;;;;;;;;;;;;;;7.89;100.00;99665.25;5096225;28;19916;-35
2022/09/28 07:17:59;;;;;;;;;;;;;;;7.92;100.00;99659.38;5096715;28;19965;-35
2022/09/28 07:20:25;;;;;;;;;;;;;;;7.98;100.00;99655.72;5095979;28;19939;-35
2022/09/28 07:22:53;;;;;;;;;;;;;;;8.03;100.00;99659.56;5095951;28;19955;-35
2022/09/28 07:25:19;;;;;;;;;;;;;;;8.05;100.00;99671.69;5095820;28;20295;-35
2022/09/28 07:27:45;;;;;;;;;;;;;;;8.10;100.00;99674.50;5096141;28;19923;-35
2022/09/28 07:30:11;;;;;;;;;;;;;;;8.13;100.00;99673.19;5096234;28;19916;-35
2022/09/28 07:32:37;;;;;;;;;;;;;;;8.17;100.00;99671.66;5095816;28;19924;-35
2022/09/28 07:35:08;;;;;;;;;;;;;;;8.20;100.00;99674.69;5096004;28;19924;-35
2022/09/28 07:37:34;;;;;;;;;;;;;;;8.27;100.00;99675.31;5095944;28;19922;-35
2022/09/28 07:42:44;;;;;;;;;;;;;;;8.42;100.00;99677.47;5096208;28;19926;-35
2022/09/28 07:45:10;;;;;;;;;;;;;;;8.46;100.00;99684.03;5095780;28;20302;-35
2022/09/28 07:47:35;;;;;;;;;;;;;;;8.51;100.00;99681.41;5096595;28;19923;-35
2022/09/28 07:50:00;;;;;;;;;;;;;;;8.59;100.00;99682.03;5095764;28;19923;-35
2022/09/28 07:52:27;;;;;;;;;;;;;;;8.64;100.00;99693.75;5095702;28;19916;-35
2022/09/28 07:54:53;;;;;;;;;;;;;;;8.70;100.00;99683.84;5095278;28;19916;-35
2022/09/28 07:57:19;;;;;;;;;;;;;;;8.79;100.00;99686.94;5095607;28;19917;-35
2022/09/28 07:59:44;;;;;;;;;;;;;;;8.87;100.00;99681.94;5095410;28;19920;-35
2022/09/28 08:02:10;;;;;;;;;;;;;;;8.95;100.00;99683.41;5095562;28;19943;-35
2022/09/28 08:04:35;;;;;;;;;;;;;;;9.01;100.00;99685.91;5095419;28;19985;-35
2022/09/28 08:07:02;;;;;;;;;;;;;;;9.06;100.00;99678.94;5095306;28;19923;-35
2022/09/28 08:09:27;;;;;;;;;;;;;;;9.14;100.00;99690.13;5095425;28;19916;-35
2022/09/28 08:11:53;;;;;;;;;;;;;;;9.21;100.00;99690.75;5095453;28;19923;-35
2022/09/28 08:14:18;;;;;;;;;;;;;;;9.26;100.00;99698.09;5095500;28;19916;-35
2022/09/28 08:16:44;;;;;;;;;;;;;;;9.31;100.00;99695.47;5095773;28;19922;-35
2022/09/28 08:19:09;;;;;;;;;;;;;;;9.39;100.00;99700.44;5095377;28;20341;-35
2022/09/28 08:21:43;;;;;;;;;;;;;;;9.45;100.00;99696.72;5095420;28;20025;-35
2022/09/28 08:24:09;;;;;;;;;;;;;;;9.57;100.00;99693.91;5095672;28;20096;-35
2022/09/28 08:26:34;;;;;;;;;;;;;;;9.65;100.00;99706.13;5095080;28;20391;-35
2022/09/28 08:28:59;;;;;;;;;;;;;;;9.74;100.00;99707.31;5095297;28;19916;-35
2022/09/28 08:31:24;;;;;;;;;;;;;;;9.85;100.00;99708.22;5094820;28;19916;-35
2022/09/28 08:33:53;;;;;;;;;;;;;;;9.92;100.00;99717.78;5094908;28;20365;-35
2022/09/28 08:36:19;;;;;;;;;;;;;;;10.00;100.00;99714.63;5094736;28;19916;-35
2022/09/28 08:38:44;;;;;;;;;;;;;;;10.12;100.00;99710.97;5094774;28;20060;-35
2022/09/28 08:41:16;;;;;;;;;;;;;;;10.25;100.00;99713.28;5095444;28;20010;-35
2022/09/28 08:43:55;;;;;;;;;;;;;;;10.30;100.00;99718.72;5094465;28;20042;-35
2022/09/28 08:46:23;;;;;;;;;;;;;;;10.39;100.00;99714.47;5094704;28;19916;-35
2022/09/28 08:48:53;;;;;;;;;;;;;;;10.45;100.00;99721.56;5094979;28;19916;-35
2022/09/28 08:51:24;;;;;;;;;;;;;;;10.54;100.00;99722.72;5094874;28;19916;-35
2022/09/28 08:53:49;;;;;;;;;;;;;;;10.56;100.00;99722.47;5093313;28;20364;-35
2022/09/28 08:56:20;;;;;;;;;;;;;;;10.63;100.00;99723.03;5093921;28;19972;-35
2022/09/28 08:58:47;;;;;;;;;;;;;;;10.77;100.00;99726.13;5094439;28;20347;-35
2022/09/28 09:01:15;;;;;;;;;;;;;;;10.80;100.00;99720.22;5094077;28;19919;-35
2022/09/28 09:03:43;;;;;;;;;;;;;;;10.93;100.00;99727.88;5094841;28;19923;-35
2022/09/28 09:06:08;;;;;;;;;;;;;;;10.99;100.00;99734.94;5093919;28;19916;-35
2022/09/28 09:08:33;;;;;;;;;;;;;;;11.10;100.00;99735.81;5094254;28;19922;-35
2022/09/28 09:11:14;;;;;;;;;;;;;;;11.21;100.00;99742.09;5094889;28;19920;-35
2022/09/28 09:14:03;;;;;;;;;;;;;;;11.33;100.00;99732.72;5094467;28;19943;-35
2022/09/28 09:16:38;;;;;;;;;;;;;;;11.43;100.00;99731.16;5094698;28;19920;-35
2022/09/28 09:19:03;;;;;;;;;;;;;;;11.51;100.00;99733.31;5094376;28;19955;-35
2022/09/28 09:21:40;;;;;;;;;;;;;;;11.63;100.00;99736.63;5094084;28;19972;-35
2022/09/28 09:24:05;;;;;;;;;;;;;;;11.74;100.00;99738.31;5094258;28;19916;-40
2022/09/28 09:26:38;;;;;;;;;;;;;;;11.85;100.00;99733.75;5093964;28;19923;-36
2022/09/28 09:29:21;;;;;;;;;;;;;;;11.94;100.00;99747.59;5093626;28;19916;-35
2022/09/28 09:31:47;;;;;;;;;;;;;;;11.93;98.61;99746.78;5094322;28;19916;-35
2022/09/28 09:34:34;;;;;;;;;;;;;;;11.84;98.85;99751.09;5093857;28;19923;-35
2022/09/28 09:37:33;;;;;;;;;;;;;;;11.69;97.86;99756.44;5094544;28;19927;-35
2022/09/28 09:40:07;;;;;;;;;;;;;;;11.59;98.38;99758.00;4992335;28;19918;-35
2022/09/28 09:42:48;;;;;;;;;;;;;;;11.58;97.49;99756.38;4991878;28;19925;-35
2022/09/28 09:45:13;;;;;;;;;;;;;;;11.54;97.40;99755.28;4991929;28;20282;-35
2022/09/28 09:47:43;;;;;;;;;;;;;;;11.59;99.09;99760.72;4991835;28;20072;-35
2022/09/28 09:50:17;;;;;;;;;;;;;;;11.91;100.00;99759.81;4991891;28;20024;-35
2022/09/28 09:52:54;;;;;;;;;;;;;;;12.11;97.90;99769.88;4992008;28;19918;-35
2022/09/28 09:55:24;;;;;;;;;;;;;;;12.15;97.27;99770.13;4992263;28;20327;-35
2022/09/28 09:57:56;;;;;;;;;;;;;;;12.30;96.91;99762.88;4992482;28;19964;-35
2022/09/28 10:00:21;;;;;;;;;;;;;;;12.41;96.39;99763.72;4991623;28;19926;-35
2022/09/28 10:02:47;;;;;;;;;;;;;;;12.63;95.99;99758.81;4991703;28;19922;-35
2022/09/28 10:05:12;;;;;;;;;;;;;;;12.77;92.85;99761.00;4992491;28;19922;-35
2022/09/28 10:07:46;;;;;;;;;;;;;;;12.69;91.50;99761.53;4998971;28;19924;-35
2022/09/28 10:10:16;;;;;;;;;;;;;;;12.73;94.64;99765.34;4998249;28;19925;-35
2022/09/28 10:12:42;;;;;;;;;;;;;;;12.85;92.13;99757.75;4998717;28;19992;-35
2022/09/28 10:15:08;;;;;;;;;;;;;;;12.93;91.90;99759.09;5025895;28;19917;-35
2022/09/28 10:17:34;;;;;;;;;;;;;;;12.80;93.28;99761.28;5079997;28;19917;-35
2022/09/28 10:19:59;;;;;;;;;;;;;;;12.64;93.44;99765.09;5079507;28;19966;-35
2022/09/28 10:22:26;;;;;;;;;;;;;;;12.67;94.11;99759.09;5080025;28;19917;-35
2022/09/28 10:24:55;;;;;;;;;;;;;;;12.85;94.54;99755.84;5079327;28;20295;-35
2022/09/28 10:27:23;;;;;;;;;;;;;;;13.07;93.70;99754.72;5080030;28;19928;-36
2022/09/28 10:29:52;;;;;;;;;;;;;;;13.27;93.58;99760.16;5079382;28;20337;-35
2022/09/28 10:32:19;;;;;;;;;;;;;;;13.45;92.51;99756.03;5079803;28;19999;-35
2022/09/28 10:34:44;;;;;;;;;;;;;;;13.59;91.97;99751.66;5080161;28;19924;-35
2022/09/28 10:37:10;;;;;;;;;;;;;;;13.72;89.98;99752.97;5079913;28;20058;-35
2022/09/28 10:39:39;;;;;;;;;;;;;;;13.73;91.14;99751.06;5079908;28;19917;-35
2022/09/28 10:42:06;;;;;;;;;;;;;;;13.83;90.38;99756.44;5080153;28;19923;-35
2022/09/28 10:44:33;;;;;;;;;;;;;;;13.81;90.85;99747.75;5079683;28;19939;-35
2022/09/28 10:47:00;;;;;;;;;;;;;;;13.77;90.94;99747.50;5079707;28;19920;-35
2022/09/28 10:49:27;;;;;;;;;;;;;;;13.90;87.35;99748.78;5088323;28;19927;-35
2022/09/28 10:51:53;;;;;;;;;;;;;;;14.06;84.39;99747.63;5099289;28;20376;-35
2022/09/28 10:54:29;;;;;;;;;;;;;;;14.20;85.58;99738.84;5099621;28;19923;-35
2022/09/28 10:56:54;;;;;;;;;;;;;;;14.30;86.26;99746.94;5100057;28;20399;-35
2022/09/28 10:59:29;;;;;;;;;;;;;;;14.34;83.96;99751.53;5099355;28;19916;-35
2022/09/28 11:01:57;;;;;;;;;;;;;;;14.31;82.58;99752.09;5099955;28;19970;-35
2022/09/28 11:04:25;;;;;;;;;;;;;;;14.12;85.18;99754.66;5099674;28;20353;-34
2022/09/28 11:06:50;;;;;;;;;;;;;;;13.86;84.99;99748.56;5099353;28;20348;-34
2022/09/28 11:09:24;;;;;;;;;;;;;;;13.63;84.81;99747.28;5099944;28;19916;-35
2022/09/28 11:11:49;;;;;;;;;;;;;;;13.43;86.83;99741.94;5100411;28;19920;-35
2022/09/28 11:14:24;;;;;;;;;;;;;;;13.43;87.62;99747.38;5100000;28;19939;-35
2022/09/28 11:17:10;;;;;;;;;;;;;;;13.71;85.45;99747.78;5098460;28;19970;-35
2022/09/28 11:19:35;;;;;;;;;;;;;;;14.06;85.54;99749.53;5096171;28;19916;-34
2022/09/28 11:22:00;;;;;;;;;;;;;;;14.32;85.32;99742.84;5096332;28;19923;-34
2022/09/28 11:24:26;;;;;;;;;;;;;;;14.45;84.00;99733.25;5096448;28;20284;-34
2022/09/28 11:26:58;;;;;;;;;;;;;;;14.54;82.92;99734.31;5096050;28;20245;-34
2022/09/28 11:29:44;;;;;;;;;;;;;;;14.67;82.02;99733.63;5096642;28;20376;-34
2022/09/28 11:32:09;;;;;;;;;;;;;;;14.71;80.54;99738.50;5096544;28;19920;-34
2022/09/28 11:34:36;;;;;;;;;;;;;;;14.59;81.54;99731.53;5096293;28;19923;-34
2022/09/28 11:37:20;;;;;;;;;;;;;;;14.54;83.09;99728.03;5096517;28;19963;-34
2022/09/28 11:39:48;;;;;;;;;;;;;;;14.52;82.08;99749.28;5095963;28;19916;-34
2022/09/28 11:42:22;;;;;;;;;;;;;;;14.54;82.71;99742.47;5096501;28;19922;-34
2022/09/28 11:44:48;;;;;;;;;;;;;;;14.30;81.67;99736.88;5096030;28;19923;-34
2022/09/28 11:47:25;;;;;;;;;;;;;;;14.24;83.93;99738.00;5096841;28;19916;-35
2022/09/28 11:50:12;;;;;;;;;;;;;;;14.23;85.16;99741.00;5096583;28;19923;-35
2022/09/28 11:52:37;;;;;;;;;;;;;;;14.25;85.03;99736.09;5095320;28;20436;-35
2022/09/28 11:55:12;;;;;;;;;;;;;;;14.35;83.87;99730.59;5095385;28;19960;-35
2022/09/28 11:57:39;;;;;;;;;;;;;;;14.54;83.91;99739.75;5096592;28;20331;-35
2022/09/28 12:00:21;;;;;;;;;;;;;;;14.77;84.96;99727.28;5095523;28;20003;-35
2022/09/28 12:02:54;;;;;;;;;;;;;;;15.01;80.30;99732.78;5095765;28;20389;-34
2022/09/28 12:05:23;;;;;;;;;;;;;;;14.98;79.93;99725.19;5095737;28;20053;-35
2022/09/28 12:07:51;;;;;;;;;;;;;;;14.82;82.17;99727.25;5096505;28;20534;-34
2022/09/28 12:10:29;;;;;;;;;;;;;;;14.58;80.35;99727.16;5095435;28;19917;-34
2022/09/28 12:13:02;;;;;;;;;;;;;;;14.47;83.22;99722.06;5095564;28;19962;-35
2022/09/28 12:15:48;;;;;;;;;;;;;;;14.58;83.04;99721.72;5095772;28;20008;-35
2022/09/28 12:18:19;;;;;;;;;;;;;;;14.49;80.88;99733.50;5094540;28;19916;-35
2022/09/28 12:20:46;;;;;;;;;;;;;;;14.33;81.00;99732.78;5095001;28;19995;-36
2022/09/28 12:23:14;;;;;;;;;;;;;;;14.17;81.32;99732.88;5095848;28;19969;-35
2022/09/28 12:25:45;;;;;;;;;;;;;;;14.33;81.60;99730.06;5095211;28;20461;-35
2022/09/28 12:28:31;;;;;;;;;;;;;;;14.41;82.55;99726.75;5095379;28;19927;-35
2022/09/28 12:30:59;;;;;;;;;;;;;;;14.34;81.48;99731.69;4993396;28;20319;-35
2022/09/28 12:33:24;;;;;;;;;;;;;;;14.20;80.12;99733.41;4993329;28;19957;-35
2022/09/28 12:36:03;;;;;;;;;;;;;;;14.11;82.26;99735.94;4993148;28;19918;-34
2022/09/28 12:38:45;;;;;;;;;;;;;;;14.05;81.47;99737.03;4993535;28;19921;-35
2022/09/28 12:41:16;;;;;;;;;;;;;;;14.27;81.88;99734.72;4993205;28;19976;-35
2022/09/28 12:43:55;;;;;;;;;;;;;;;14.60;80.89;99733.16;4992956;28;19922;-35
2022/09/28 12:46:25;;;;;;;;;;;;;;;14.89;78.68;99733.19;4993446;28;19940;-36
2022/09/28 12:49:04;;;;;;;;;;;;;;;15.09;79.55;99726.72;4993300;28;19972;-35
2022/09/28 12:51:47;;;;;;;;;;;;;;;15.20;78.12;99730.97;4993055;28;20271;-36
2022/09/28 12:54:33;;;;;;;;;;;;;;;14.98;77.53;99727.91;4992853;28;20008;-35
2022/09/28 12:57:14;;;;;;;;;;;;;;;14.75;77.85;99726.78;4992789;28;19918;-35